createdAt,value
2017-09-06T00:02:06.841Z,11.00
2017-09-06T00:04:35.517Z,9.40
2017-09-06T00:07:03.966Z,9.60
2017-09-06T00:09:32.367Z,9.17
2017-09-06T00:12:01.748Z,7.37
2017-09-06T00:14:30.194Z,8.10
2017-09-06T00:16:58.645Z,7.40
2017-09-06T00:19:27.074Z,7.00
2017-09-06T00:21:55.560Z,7.37
2017-09-06T00:24:24.139Z,7.23
2017-09-06T00:26:52.600Z,6.80
2017-09-06T00:29:21.091Z,7.17
2017-09-06T00:31:49.524Z,6.93
2017-09-06T00:34:17.991Z,7.90
2017-09-06T00:36:46.785Z,6.93
2017-09-06T00:39:15.181Z,6.67
2017-09-06T00:41:43.610Z,6.53
2017-09-06T00:44:12.215Z,9.40
2017-09-06T00:46:40.659Z,7.20
2017-09-06T00:49:09.186Z,7.83
2017-09-06T00:51:38.416Z,7.90
2017-09-06T00:54:06.898Z,7.07
2017-09-06T00:56:35.386Z,9.20
2017-09-06T00:59:03.894Z,8.30
2017-09-06T01:01:33.170Z,7.07
2017-09-06T01:04:01.658Z,8.20
2017-09-06T01:06:30.359Z,8.00
2017-09-06T01:08:58.814Z,8.47
2017-09-06T01:11:27.985Z,9.30
2017-09-06T01:13:56.619Z,8.60
2017-09-06T01:16:25.062Z,10.17
2017-09-06T01:18:53.479Z,9.03
2017-09-06T01:21:22.209Z,8.90
2017-09-06T01:23:50.664Z,8.97
2017-09-06T01:26:19.123Z,8.57
2017-09-06T01:28:47.551Z,10.10
2017-09-06T01:31:15.976Z,9.10
2017-09-06T01:33:44.436Z,8.73
2017-09-06T01:36:13.021Z,9.00
2017-09-06T01:38:41.473Z,9.20
2017-09-06T01:41:09.910Z,8.30
2017-09-06T01:43:38.624Z,9.33
2017-09-06T01:46:07.799Z,8.63
2017-09-06T01:48:36.208Z,8.97
2017-09-06T01:51:04.725Z,8.00
2017-09-06T01:53:33.152Z,9.10
2017-09-06T01:56:01.664Z,8.50
2017-09-06T01:58:30.121Z,8.87
2017-09-06T02:00:59.297Z,8.93
2017-09-06T02:03:27.732Z,9.20
2017-09-06T02:05:56.450Z,8.37
2017-09-06T02:08:25.231Z,8.57
2017-09-06T02:10:53.612Z,9.77
2017-09-06T02:13:22.199Z,8.80
2017-09-06T02:15:50.646Z,8.30
2017-09-06T02:18:19.065Z,7.63
2017-09-06T02:20:48.008Z,8.17
2017-09-06T02:23:16.421Z,7.47
2017-09-06T02:25:44.827Z,7.63
2017-09-06T02:28:13.562Z,7.60
2017-09-06T02:30:41.950Z,7.67
2017-09-06T02:33:10.359Z,7.10
2017-09-06T02:35:38.945Z,7.40
2017-09-06T02:38:07.363Z,7.50
2017-09-06T02:40:36.573Z,6.60
2017-09-06T02:43:05.210Z,7.27
2017-09-06T02:45:33.663Z,8.27
2017-09-06T02:48:02.073Z,6.77
2017-09-06T02:50:30.774Z,6.60
2017-09-06T02:53:00.093Z,7.10
2017-09-06T02:55:28.531Z,5.23
2017-09-06T02:57:56.993Z,5.53
2017-09-06T03:00:25.387Z,5.17
2017-09-06T03:02:53.768Z,5.80
2017-09-06T03:05:22.349Z,5.33
2017-09-06T03:07:50.778Z,5.47
2017-09-06T03:10:19.797Z,4.93
2017-09-06T03:12:48.447Z,4.60
2017-09-06T03:15:16.975Z,4.43
2017-09-06T03:17:45.492Z,4.50
2017-09-06T03:20:13.982Z,4.20
2017-09-06T03:22:43.183Z,3.83
2017-09-06T03:25:11.634Z,4.00
2017-09-06T03:27:40.348Z,3.93
2017-09-06T03:30:08.833Z,3.30
2017-09-06T03:32:37.261Z,3.70
2017-09-06T03:35:05.880Z,3.77
2017-09-06T03:37:34.290Z,3.33
2017-09-06T03:40:02.713Z,3.57
2017-09-06T03:42:31.563Z,3.23
2017-09-06T03:45:00.920Z,3.47
2017-09-06T03:47:30.376Z,2.93
2017-09-06T03:49:58.953Z,3.97
2017-09-06T03:52:29.276Z,2.90
2017-09-06T03:54:57.845Z,2.53
2017-09-06T03:57:26.527Z,2.97
2017-09-06T03:59:54.942Z,2.87
2017-09-06T04:02:23.625Z,3.13
2017-09-06T04:04:52.340Z,2.80
2017-09-06T04:07:21.042Z,2.93
2017-09-06T04:09:49.637Z,2.97
2017-09-06T04:12:19.467Z,2.60
2017-09-06T04:14:47.890Z,2.40
2017-09-06T04:17:16.321Z,2.40
2017-09-06T04:19:44.865Z,2.47
2017-09-06T04:22:13.393Z,2.20
2017-09-06T04:24:41.848Z,2.33
2017-09-06T04:27:10.483Z,2.40
2017-09-06T04:29:38.926Z,2.40
2017-09-06T04:32:07.807Z,2.87
2017-09-06T04:34:37.091Z,2.40
2017-09-06T04:37:05.547Z,2.87
2017-09-06T04:39:34.817Z,2.63
2017-09-06T04:42:04.922Z,3.57
2017-09-06T04:44:33.450Z,2.10
2017-09-06T04:47:01.876Z,2.40
2017-09-06T04:49:30.418Z,2.97
2017-09-06T04:51:58.932Z,2.70
2017-09-06T04:54:27.429Z,1.80
2017-09-06T04:56:59.092Z,3.10
2017-09-06T04:59:28.380Z,2.43
2017-09-06T05:01:56.824Z,2.50
2017-09-06T05:04:25.549Z,2.80
2017-09-06T05:06:53.989Z,3.20
2017-09-06T05:09:22.563Z,3.10
2017-09-06T05:11:51.284Z,2.70
2017-09-06T05:14:20.084Z,3.20
2017-09-06T05:16:48.680Z,3.17
2017-09-06T05:19:17.210Z,3.20
2017-09-06T05:21:47.449Z,2.70
2017-09-06T05:24:15.990Z,2.97
2017-09-06T05:26:44.931Z,3.00
2017-09-06T05:29:13.411Z,2.73
2017-09-06T05:31:41.900Z,2.53
2017-09-06T05:34:10.831Z,2.63
2017-09-06T05:36:39.276Z,3.03
2017-09-06T05:39:07.953Z,2.50
2017-09-06T05:41:36.578Z,3.07
2017-09-06T05:44:05.024Z,2.33
2017-09-06T05:46:33.806Z,3.20
2017-09-06T05:49:03.174Z,2.17
2017-09-06T05:51:31.655Z,2.23
2017-09-06T05:54:00.146Z,1.87
2017-09-06T05:56:29.128Z,2.37
2017-09-06T05:58:57.879Z,2.73
2017-09-06T06:01:27.517Z,2.80
2017-09-06T06:03:56.238Z,3.33
2017-09-06T06:06:24.930Z,2.40
2017-09-06T06:08:54.311Z,2.23
2017-09-06T06:11:22.890Z,2.20
2017-09-06T06:13:51.747Z,2.60
2017-09-06T06:16:22.145Z,2.43
2017-09-06T06:18:50.863Z,3.03
2017-09-06T06:21:19.348Z,2.53
2017-09-06T06:23:47.828Z,2.47
2017-09-06T06:26:16.341Z,2.70
2017-09-06T06:28:44.797Z,2.53
2017-09-06T06:31:13.228Z,2.80
2017-09-06T06:33:41.752Z,2.57
2017-09-06T06:36:12.091Z,2.40
2017-09-06T06:38:40.642Z,1.50
2017-09-06T06:41:09.335Z,1.87
2017-09-06T06:43:37.891Z,1.50
2017-09-06T06:46:06.374Z,2.10
2017-09-06T06:48:35.121Z,1.80
2017-09-06T06:51:03.978Z,1.33
2017-09-06T06:53:32.491Z,1.77
2017-09-06T06:56:01.265Z,1.53
2017-09-06T06:58:29.684Z,2.00
2017-09-06T07:00:58.593Z,2.10
2017-09-06T07:03:27.018Z,1.97
2017-09-06T07:05:55.462Z,2.00
2017-09-06T07:08:23.992Z,2.50
2017-09-06T07:10:52.660Z,1.60
2017-09-06T07:13:21.259Z,1.10
2017-09-06T07:15:49.857Z,1.00
2017-09-06T07:18:18.826Z,1.20
2017-09-06T07:20:47.274Z,1.10
2017-09-06T07:23:15.727Z,1.23
2017-09-06T07:25:44.448Z,1.40
2017-09-06T07:28:13.141Z,1.40
2017-09-06T07:30:41.577Z,1.03
2017-09-06T07:33:10.347Z,1.33
2017-09-06T07:35:39.206Z,1.53
2017-09-06T07:38:07.791Z,1.00
2017-09-06T07:40:36.414Z,1.50
2017-09-06T07:43:05.030Z,1.40
2017-09-06T07:45:34.057Z,1.23
2017-09-06T07:48:02.947Z,1.30
2017-09-06T07:50:31.483Z,1.20
2017-09-06T07:53:00.024Z,1.50
2017-09-06T07:55:28.761Z,1.23
2017-09-06T07:57:57.194Z,1.30
2017-09-06T08:00:26.378Z,1.50
2017-09-06T08:02:54.897Z,1.60
2017-09-06T08:05:23.374Z,1.60
2017-09-06T08:07:57.755Z,2.67
2017-09-06T08:10:26.277Z,1.70
2017-09-06T08:12:55.452Z,1.93
2017-09-06T08:15:24.583Z,1.83
2017-09-06T08:17:52.992Z,1.47
2017-09-06T08:20:21.627Z,1.70
2017-09-06T08:22:50.519Z,2.03
2017-09-06T08:25:19.049Z,1.80
2017-09-06T08:27:48.312Z,2.17
2017-09-06T08:30:17.637Z,1.83
2017-09-06T08:32:46.121Z,2.20
2017-09-06T08:35:14.607Z,1.70
2017-09-06T08:37:43.657Z,1.30
2017-09-06T08:40:13.467Z,0.90
2017-09-06T08:42:42.532Z,1.30
2017-09-06T08:45:11.134Z,1.37
2017-09-06T08:47:40.426Z,1.07
2017-09-06T08:50:08.838Z,0.77
2017-09-06T08:52:37.301Z,0.90
2017-09-06T08:55:05.759Z,1.27
2017-09-06T08:57:34.166Z,0.90
2017-09-06T09:00:02.732Z,1.23
2017-09-06T09:02:31.562Z,0.83
2017-09-06T09:05:00.045Z,0.80
2017-09-06T09:07:28.775Z,0.67
2017-09-06T09:09:57.197Z,0.97
2017-09-06T09:12:26.003Z,0.80
2017-09-06T09:14:55.079Z,0.83
2017-09-06T09:17:23.546Z,0.97
2017-09-06T09:19:52.961Z,1.33
2017-09-06T09:22:21.851Z,0.60
2017-09-06T09:24:50.358Z,0.80
2017-09-06T09:27:18.967Z,1.03
2017-09-06T09:29:49.671Z,0.90
2017-09-06T09:32:18.085Z,0.93
2017-09-06T09:34:47.087Z,0.90
2017-09-06T09:37:15.898Z,0.80
2017-09-06T09:39:44.423Z,1.07
2017-09-06T09:42:12.887Z,0.80
2017-09-06T09:44:41.748Z,1.33
2017-09-06T09:47:10.241Z,1.37
2017-09-06T09:49:38.647Z,0.87
2017-09-06T09:52:07.179Z,1.23
2017-09-06T09:54:35.602Z,1.00
2017-09-06T09:57:04.139Z,1.17
2017-09-06T09:59:33.117Z,1.10
2017-09-06T10:02:01.558Z,1.37
2017-09-06T10:04:34.171Z,0.93
2017-09-06T10:07:04.585Z,1.30
2017-09-06T10:09:34.668Z,1.67
2017-09-06T10:12:04.415Z,1.30
2017-09-06T10:14:33.008Z,1.50
2017-09-06T10:17:01.489Z,1.53
2017-09-06T10:19:30.084Z,1.93
2017-09-06T10:21:58.983Z,2.30
2017-09-06T10:24:28.383Z,2.63
2017-09-06T10:26:57.785Z,2.60
2017-09-06T10:29:27.060Z,2.90
2017-09-06T10:31:56.043Z,3.43
2017-09-06T10:34:25.417Z,4.40
2017-09-06T10:36:54.700Z,4.00
2017-09-06T10:39:23.142Z,4.40
2017-09-06T10:41:51.943Z,4.60
2017-09-06T10:44:21.527Z,4.70
2017-09-06T10:46:49.978Z,4.87
2017-09-06T10:49:21.068Z,5.10
2017-09-06T10:51:49.618Z,4.50
2017-09-06T10:54:18.215Z,4.13
2017-09-06T10:56:47.011Z,4.40
2017-09-06T10:59:15.450Z,3.60
2017-09-06T11:01:47.003Z,3.47
2017-09-06T11:04:15.824Z,3.80
2017-09-06T11:06:45.198Z,3.83
2017-09-06T11:09:14.439Z,3.67
2017-09-06T11:11:43.054Z,3.50
2017-09-06T11:14:12.456Z,3.10
2017-09-06T11:16:41.175Z,3.70
2017-09-06T11:19:10.962Z,4.20
2017-09-06T11:21:39.455Z,3.73
2017-09-06T11:24:11.253Z,3.80
2017-09-06T11:26:39.946Z,3.10
2017-09-06T11:29:09.430Z,3.60
2017-09-06T11:31:38.868Z,3.63
2017-09-06T11:34:07.548Z,4.17
2017-09-06T11:36:36.878Z,4.40
2017-09-06T11:39:07.785Z,4.23
2017-09-06T11:41:37.433Z,4.50
2017-09-06T11:44:08.126Z,3.63
2017-09-06T11:46:39.184Z,3.40
2017-09-06T11:49:08.771Z,3.97
2017-09-06T11:51:38.449Z,3.53
2017-09-06T11:54:08.078Z,3.70
2017-09-06T11:56:36.736Z,4.10
2017-09-06T11:59:05.304Z,4.00
2017-09-06T12:01:35.128Z,3.67
2017-09-06T12:04:05.840Z,3.90
2017-09-06T12:06:35.600Z,4.07
2017-09-06T12:09:05.100Z,3.40
2017-09-06T12:11:34.012Z,3.70
2017-09-06T12:14:04.164Z,4.27
2017-09-06T12:16:37.318Z,4.40
2017-09-06T12:19:05.836Z,3.40
2017-09-06T12:21:34.358Z,3.27
2017-09-06T12:24:03.300Z,3.67
2017-09-06T12:26:32.276Z,2.40
2017-09-06T12:29:02.109Z,3.30
2017-09-06T12:31:30.693Z,2.70
2017-09-06T12:33:59.141Z,2.83
2017-09-06T12:36:28.386Z,2.30
2017-09-06T12:38:57.286Z,2.50
2017-09-06T12:41:25.858Z,2.43
2017-09-06T12:43:55.611Z,2.83
2017-09-06T12:46:24.981Z,3.07
2017-09-06T12:48:53.553Z,3.00
2017-09-06T12:51:22.000Z,2.87
2017-09-06T12:53:52.895Z,2.30
2017-09-06T12:56:21.936Z,3.40
2017-09-06T12:58:50.897Z,3.40
2017-09-06T13:01:21.322Z,3.30
2017-09-06T13:03:49.916Z,3.27
2017-09-06T13:06:19.213Z,3.50
2017-09-06T13:08:49.865Z,3.53
2017-09-06T13:11:18.964Z,3.90
2017-09-06T13:13:47.760Z,3.20
2017-09-06T13:16:16.804Z,2.70
2017-09-06T13:18:46.764Z,2.83
2017-09-06T13:21:16.484Z,2.57
2017-09-06T13:23:45.468Z,2.43
2017-09-06T13:26:17.577Z,2.67
2017-09-06T13:28:46.349Z,2.33
2017-09-06T13:31:15.422Z,2.80
2017-09-06T13:33:45.017Z,3.10
2017-09-06T13:36:16.057Z,2.70
2017-09-06T13:38:46.163Z,2.57
2017-09-06T13:41:14.860Z,2.50
2017-09-06T13:43:45.450Z,2.57
2017-09-06T13:46:13.936Z,2.00
2017-09-06T13:48:42.498Z,2.57
2017-09-06T13:51:12.221Z,2.60
2017-09-06T13:53:41.844Z,2.40
2017-09-06T13:56:11.085Z,2.60
2017-09-06T13:58:41.313Z,2.60
2017-09-06T14:01:09.851Z,1.60
2017-09-06T14:03:39.452Z,2.20
2017-09-06T14:06:08.255Z,2.30
2017-09-06T14:08:36.786Z,2.40
2017-09-06T14:11:06.022Z,1.57
2017-09-06T14:13:34.539Z,2.20
2017-09-06T14:16:03.096Z,2.13
2017-09-06T14:18:33.107Z,2.13
2017-09-06T14:21:01.961Z,1.83
2017-09-06T14:23:30.578Z,2.13
2017-09-06T14:26:00.021Z,2.47
2017-09-06T14:28:28.590Z,2.40
2017-09-06T14:30:57.186Z,3.10
2017-09-06T14:33:26.058Z,2.30
2017-09-06T14:35:55.512Z,2.13
2017-09-06T14:38:24.166Z,1.80
2017-09-06T14:40:53.934Z,3.07
2017-09-06T14:43:22.919Z,2.77
2017-09-06T14:48:27.154Z,2.20
2017-09-06T14:50:55.865Z,1.70
2017-09-06T14:53:25.453Z,2.10
2017-09-06T14:55:54.873Z,2.27
2017-09-06T14:58:23.408Z,2.40
2017-09-06T15:00:51.978Z,2.20
2017-09-06T15:03:21.099Z,2.10
2017-09-06T15:05:49.773Z,2.63
2017-09-06T15:08:18.425Z,2.50
2017-09-06T15:10:47.415Z,2.03
2017-09-06T15:13:16.846Z,2.60
2017-09-06T15:15:45.391Z,3.00
2017-09-06T15:18:14.724Z,2.00
2017-09-06T15:20:43.341Z,2.40
2017-09-06T15:23:11.914Z,2.10
2017-09-06T15:25:40.725Z,2.30
2017-09-06T15:28:10.082Z,3.40
2017-09-06T15:30:38.753Z,2.43
2017-09-06T15:33:07.574Z,3.00
2017-09-06T15:35:36.278Z,1.80
2017-09-06T15:38:05.597Z,1.93
2017-09-06T15:40:34.166Z,2.33
2017-09-06T15:43:02.714Z,2.43
2017-09-06T15:45:31.761Z,2.30
2017-09-06T15:48:00.597Z,2.40
2017-09-06T15:50:29.281Z,3.10
2017-09-06T15:52:58.218Z,2.87
2017-09-06T15:55:27.279Z,2.30
2017-09-06T15:57:57.000Z,2.03
2017-09-06T16:00:25.679Z,2.87
2017-09-06T16:02:54.389Z,2.80
2017-09-06T16:05:22.995Z,3.03
2017-09-06T16:07:51.591Z,2.67
2017-09-06T16:10:20.905Z,2.60
2017-09-06T16:12:49.439Z,2.50
2017-09-06T16:15:18.047Z,2.17
2017-09-06T16:17:46.834Z,2.30
2017-09-06T16:20:15.653Z,2.37
2017-09-06T16:22:45.258Z,1.83
2017-09-06T16:25:13.898Z,3.00
2017-09-06T16:27:42.491Z,2.57
2017-09-06T16:30:11.959Z,2.83
2017-09-06T16:32:40.665Z,2.80
2017-09-06T16:35:09.211Z,3.37
2017-09-06T16:37:37.877Z,3.53
2017-09-06T16:40:07.210Z,2.13
2017-09-06T16:42:35.811Z,2.83
2017-09-06T16:45:08.621Z,2.23
2017-09-06T16:47:37.275Z,2.73
2017-09-06T16:50:05.922Z,3.03
2017-09-06T16:52:34.399Z,2.90
2017-09-06T16:55:03.265Z,3.20
2017-09-06T16:57:31.764Z,3.20
2017-09-06T17:00:00.308Z,1.83
2017-09-06T17:02:29.089Z,2.80
2017-09-06T17:04:57.479Z,2.93
2017-09-06T17:07:25.908Z,3.13
2017-09-06T17:09:54.534Z,3.63
2017-09-06T17:12:23.092Z,3.37
2017-09-06T17:14:51.584Z,3.47
2017-09-06T17:17:20.323Z,2.90
2017-09-06T17:19:48.778Z,3.43
2017-09-06T17:22:17.495Z,2.67
2017-09-06T17:24:46.489Z,3.07
2017-09-06T17:27:14.937Z,3.37
2017-09-06T17:29:44.098Z,3.63
2017-09-06T17:32:12.826Z,3.00
2017-09-06T17:34:41.251Z,2.50
2017-09-06T17:37:10.310Z,3.43
2017-09-06T17:39:39.640Z,3.60
2017-09-06T17:42:08.255Z,3.27
2017-09-06T17:44:36.714Z,3.93
2017-09-06T17:47:05.529Z,5.37
2017-09-06T17:49:33.975Z,4.00
2017-09-06T17:52:03.387Z,3.80
2017-09-06T17:54:32.234Z,3.27
2017-09-06T17:57:00.657Z,3.43
2017-09-06T17:59:29.398Z,2.90
2017-09-06T18:01:57.983Z,4.20
2017-09-06T18:04:26.398Z,4.77
2017-09-06T18:06:55.975Z,3.50
2017-09-06T18:09:24.699Z,2.70
2017-09-06T18:11:53.262Z,5.70
2017-09-06T18:14:21.679Z,3.87
2017-09-06T18:16:50.472Z,4.30
2017-09-06T18:19:18.910Z,3.20
2017-09-06T18:21:47.380Z,3.30
2017-09-06T18:24:16.112Z,3.40
2017-09-06T18:26:44.653Z,4.70
2017-09-06T18:29:13.081Z,4.10
2017-09-06T18:31:42.261Z,5.70
2017-09-06T18:34:10.752Z,5.03
2017-09-06T18:36:39.286Z,5.30
2017-09-06T18:39:08.267Z,4.70
2017-09-06T18:41:37.115Z,4.63
2017-09-06T18:44:05.527Z,4.57
2017-09-06T18:46:34.080Z,4.53
2017-09-06T18:49:02.680Z,4.80
2017-09-06T18:51:31.081Z,4.87
2017-09-06T18:53:59.722Z,4.50
2017-09-06T18:56:28.169Z,4.07
2017-09-06T18:58:56.604Z,4.07
2017-09-06T19:01:25.901Z,3.03
2017-09-06T19:03:55.119Z,4.20
2017-09-06T19:06:23.515Z,3.33
2017-09-06T19:08:53.453Z,4.70
2017-09-06T19:11:23.072Z,4.50
2017-09-06T19:13:51.663Z,3.00
2017-09-06T19:16:20.257Z,3.30
2017-09-06T19:18:48.665Z,3.00
2017-09-06T19:21:17.082Z,3.73
2017-09-06T19:23:45.724Z,4.00
2017-09-06T19:26:15.145Z,3.83
2017-09-06T19:28:43.565Z,3.70
2017-09-06T19:31:12.404Z,4.30
2017-09-06T19:33:40.840Z,4.23
2017-09-06T19:36:09.262Z,7.73
2017-09-06T19:38:37.773Z,5.27
2017-09-06T19:41:06.218Z,3.17
2017-09-06T19:43:35.095Z,4.30
2017-09-06T19:46:03.623Z,4.00
2017-09-06T19:48:32.058Z,3.87
2017-09-06T19:51:00.545Z,3.23
2017-09-06T19:53:29.099Z,3.57
2017-09-06T19:55:57.562Z,3.30
2017-09-06T19:58:26.029Z,3.53
2017-09-06T20:00:54.892Z,3.53
2017-09-06T20:03:23.553Z,3.40
2017-09-06T20:05:51.991Z,3.20
2017-09-06T20:08:20.773Z,4.13
2017-09-06T20:10:49.226Z,3.83
2017-09-06T20:13:17.636Z,3.60
2017-09-06T20:15:46.101Z,3.27
2017-09-06T20:18:14.547Z,3.90
2017-09-06T20:20:42.978Z,3.60
2017-09-06T20:23:11.730Z,3.50
2017-09-06T20:25:40.216Z,4.60
2017-09-06T20:28:08.878Z,4.17
2017-09-06T20:30:37.535Z,3.80
2017-09-06T20:33:06.035Z,3.23
2017-09-06T20:35:34.541Z,4.20
2017-09-06T20:38:03.084Z,3.93
2017-09-06T20:40:31.578Z,3.97
2017-09-06T20:43:00.837Z,3.80
2017-09-06T20:45:29.920Z,3.50
2017-09-06T20:47:58.381Z,4.17
2017-09-06T20:50:26.799Z,3.87
2017-09-06T20:52:55.359Z,4.23
2017-09-06T20:55:23.775Z,4.30
2017-09-06T20:57:52.191Z,3.77
2017-09-06T21:00:20.614Z,4.20
2017-09-06T21:02:49.098Z,3.80
2017-09-06T21:05:17.865Z,3.37
2017-09-06T21:07:46.551Z,5.17
2017-09-06T21:10:15.064Z,4.97
2017-09-06T21:12:43.545Z,3.93
2017-09-06T21:15:12.011Z,4.87
2017-09-06T21:17:40.468Z,4.23
2017-09-06T21:20:08.881Z,5.83
2017-09-06T21:22:37.456Z,4.33
2017-09-06T21:25:05.880Z,4.50
2017-09-06T21:27:35.113Z,4.80
2017-09-06T21:30:04.089Z,4.53
2017-09-06T21:32:33.312Z,4.70
2017-09-06T21:35:01.786Z,5.23
2017-09-06T21:37:30.678Z,4.63
2017-09-06T21:39:59.112Z,4.17
2017-09-06T21:42:28.290Z,3.90
2017-09-06T21:44:56.854Z,4.93
2017-09-06T21:47:25.381Z,3.97
2017-09-06T21:49:54.379Z,4.30
2017-09-06T21:52:23.746Z,4.03
2017-09-06T21:54:52.256Z,4.70
2017-09-06T21:57:21.431Z,3.80
2017-09-06T21:59:49.886Z,3.93
2017-09-06T22:02:18.299Z,3.93
2017-09-06T22:04:46.684Z,5.33
2017-09-06T22:07:16.236Z,4.00
2017-09-06T22:09:45.497Z,4.33
2017-09-06T22:12:14.701Z,4.17
2017-09-06T22:14:44.049Z,4.40
2017-09-06T22:17:12.501Z,4.00
2017-09-06T22:19:40.968Z,4.30
2017-09-06T22:22:10.452Z,4.70
2017-09-06T22:24:38.869Z,3.60
2017-09-06T22:27:07.329Z,4.30
2017-09-06T22:29:36.554Z,3.93
2017-09-06T22:32:05.254Z,4.07
2017-09-06T22:34:33.665Z,4.47
2017-09-06T22:37:02.485Z,5.50
2017-09-06T22:39:30.906Z,4.77
2017-09-06T22:41:59.331Z,5.90
2017-09-06T22:44:28.118Z,5.57
2017-09-06T22:46:57.314Z,5.00
2017-09-06T22:49:26.160Z,3.73
2017-09-06T22:51:54.951Z,4.27
2017-09-06T22:54:23.322Z,4.50
2017-09-06T22:56:51.744Z,4.90
2017-09-06T22:59:20.155Z,4.20
2017-09-06T23:01:48.515Z,4.43
2017-09-06T23:04:17.676Z,4.20
2017-09-06T23:06:46.277Z,4.93
2017-09-06T23:09:14.663Z,4.67
2017-09-06T23:11:43.046Z,5.80
2017-09-06T23:14:11.551Z,4.40
2017-09-06T23:16:39.929Z,3.97
2017-09-06T23:19:08.308Z,5.73
2017-09-06T23:21:36.892Z,4.30
2017-09-06T23:24:05.297Z,4.73
2017-09-06T23:26:33.687Z,4.83
2017-09-06T23:29:02.190Z,4.77
2017-09-06T23:31:30.575Z,5.30
2017-09-06T23:33:59.347Z,4.47
2017-09-06T23:36:28.065Z,4.90
2017-09-06T23:38:57.216Z,4.60
2017-09-06T23:41:25.653Z,4.80
2017-09-06T23:43:54.298Z,4.27
2017-09-06T23:46:22.888Z,3.77
2017-09-06T23:48:51.337Z,4.40
2017-09-06T23:51:19.975Z,4.67
2017-09-06T23:53:48.421Z,4.40
2017-09-06T23:56:16.962Z,5.10
2017-09-06T23:58:45.557Z,4.30
